createdAt,value
2018-08-20T00:01:36.590Z,6.00
2018-08-20T00:04:08.442Z,5.53
2018-08-20T00:06:49.519Z,5.33
2018-08-20T00:09:18.298Z,5.30
2018-08-20T00:11:47.755Z,5.50
2018-08-20T00:14:20.329Z,4.97
2018-08-20T00:16:49.742Z,4.90
2018-08-20T00:19:18.549Z,5.30
2018-08-20T00:21:47.702Z,5.23
2018-08-20T00:24:16.742Z,5.17
2018-08-20T00:26:45.852Z,5.57
2018-08-20T00:29:14.983Z,5.20
2018-08-20T00:31:44.199Z,5.57
2018-08-20T00:34:13.704Z,4.90
2018-08-20T00:36:44.939Z,5.37
2018-08-20T00:39:14.089Z,5.60
2018-08-20T00:41:42.953Z,5.67
2018-08-20T00:44:16.526Z,5.43
2018-08-20T00:46:46.055Z,5.23
2018-08-20T00:49:16.611Z,5.43
2018-08-20T00:51:45.934Z,5.80
2018-08-20T00:54:15.154Z,6.00
2018-08-20T00:56:44.358Z,5.27
2018-08-20T00:59:13.589Z,5.80
2018-08-20T01:01:42.837Z,5.60
2018-08-20T01:04:12.006Z,5.90
2018-08-20T01:06:41.156Z,6.43
2018-08-20T01:09:10.319Z,5.70
2018-08-20T01:11:39.623Z,5.80
2018-08-20T01:14:08.718Z,5.40
2018-08-20T01:16:37.664Z,5.63
2018-08-20T01:19:06.812Z,5.77
2018-08-20T01:21:35.705Z,5.53
2018-08-20T01:24:04.963Z,5.50
2018-08-20T01:26:34.183Z,5.63
2018-08-20T01:29:02.961Z,6.03
2018-08-20T01:31:32.111Z,6.20
2018-08-20T01:34:01.238Z,5.73
2018-08-20T01:36:30.415Z,5.80
2018-08-20T01:38:59.612Z,5.67
2018-08-20T01:41:28.713Z,5.73
2018-08-20T01:43:57.577Z,6.30
2018-08-20T01:46:26.422Z,6.20
2018-08-20T01:48:55.559Z,5.93
2018-08-20T01:51:24.630Z,6.17
2018-08-20T01:53:53.730Z,5.93
2018-08-20T01:56:22.709Z,5.90
2018-08-20T01:58:51.914Z,5.93
2018-08-20T02:01:21.171Z,5.90
2018-08-20T02:03:50.076Z,6.03
2018-08-20T02:06:19.183Z,5.97
2018-08-20T02:08:48.389Z,5.80
2018-08-20T02:11:17.630Z,6.00
2018-08-20T02:13:46.620Z,6.03
2018-08-20T02:16:15.823Z,6.27
2018-08-20T02:18:45.168Z,6.23
2018-08-20T02:21:14.278Z,6.00
2018-08-20T02:23:43.367Z,5.80
2018-08-20T02:26:12.467Z,6.27
2018-08-20T02:28:41.553Z,6.73
2018-08-20T02:31:10.603Z,6.83
2018-08-20T02:33:39.265Z,7.30
2018-08-20T02:36:08.422Z,7.13
2018-08-20T02:38:37.630Z,6.93
2018-08-20T02:41:06.606Z,6.97
2018-08-20T02:43:35.859Z,7.00
2018-08-20T02:46:05.075Z,6.70
2018-08-20T02:48:34.212Z,6.37
2018-08-20T02:51:03.477Z,6.00
2018-08-20T02:53:32.606Z,6.20
2018-08-20T02:56:01.730Z,6.03
2018-08-20T02:58:30.606Z,5.93
2018-08-20T03:00:59.826Z,5.80
2018-08-20T03:03:29.077Z,6.37
2018-08-20T03:05:58.211Z,6.43
2018-08-20T03:08:27.190Z,5.80
2018-08-20T03:10:56.165Z,6.70
2018-08-20T03:13:25.139Z,6.30
2018-08-20T03:15:54.246Z,6.67
2018-08-20T03:18:23.279Z,6.33
2018-08-20T03:20:52.464Z,5.90
2018-08-20T03:23:21.450Z,6.93
2018-08-20T03:25:50.683Z,6.63
2018-08-20T03:28:19.701Z,7.23
2018-08-20T03:30:48.766Z,6.43
2018-08-20T03:33:17.593Z,7.50
2018-08-20T03:35:46.858Z,6.57
2018-08-20T03:38:15.673Z,6.40
2018-08-20T03:40:44.462Z,6.27
2018-08-20T03:43:13.769Z,6.40
2018-08-20T03:45:42.967Z,6.17
2018-08-20T03:48:11.959Z,6.00
2018-08-20T03:50:41.099Z,6.90
2018-08-20T03:53:10.410Z,6.50
2018-08-20T03:55:39.526Z,6.27
2018-08-20T03:58:08.522Z,6.53
2018-08-20T04:00:37.481Z,6.50
2018-08-20T04:03:07.071Z,6.20
2018-08-20T04:05:36.289Z,6.67
2018-08-20T04:08:05.303Z,6.73
2018-08-20T04:10:34.287Z,6.57
2018-08-20T04:13:03.250Z,6.23
2018-08-20T04:15:32.392Z,6.17
2018-08-20T04:18:01.211Z,5.70
2018-08-20T04:20:30.485Z,6.50
2018-08-20T04:22:59.723Z,6.67
2018-08-20T04:25:28.922Z,6.90
2018-08-20T04:27:57.788Z,6.70
2018-08-20T04:30:26.994Z,7.10
2018-08-20T04:32:55.730Z,6.60
2018-08-20T04:35:24.898Z,6.93
2018-08-20T04:37:53.807Z,7.37
2018-08-20T04:40:22.636Z,6.73
2018-08-20T04:42:51.910Z,6.33
2018-08-20T04:45:20.727Z,7.30
2018-08-20T04:47:50.004Z,7.40
2018-08-20T04:50:19.312Z,7.10
2018-08-20T04:52:48.446Z,7.10
2018-08-20T04:55:17.617Z,6.83
2018-08-20T04:57:46.739Z,6.87
2018-08-20T05:00:15.971Z,6.87
2018-08-20T05:02:44.886Z,6.50
2018-08-20T05:05:14.159Z,7.10
2018-08-20T05:07:43.212Z,6.53
2018-08-20T05:10:12.518Z,6.93
2018-08-20T05:12:41.326Z,6.20
2018-08-20T05:15:10.596Z,6.23
2018-08-20T05:17:39.474Z,6.00
2018-08-20T05:20:09.115Z,6.83
2018-08-20T05:22:38.334Z,6.93
2018-08-20T05:25:07.528Z,6.83
2018-08-20T05:27:36.636Z,6.60
2018-08-20T05:30:06.606Z,7.03
2018-08-20T05:32:35.681Z,7.20
2018-08-20T05:35:05.057Z,52.43
2018-08-20T05:37:34.029Z,42.83
2018-08-20T05:40:03.159Z,17.37
2018-08-20T05:42:32.117Z,9.40
2018-08-20T05:45:01.410Z,8.20
2018-08-20T05:47:30.593Z,7.87
2018-08-20T05:50:00.014Z,7.77
2018-08-20T05:52:29.122Z,7.77
2018-08-20T05:54:58.210Z,7.93
2018-08-20T05:57:27.306Z,7.63
2018-08-20T05:59:56.144Z,7.43
2018-08-20T06:02:25.108Z,7.07
2018-08-20T06:04:54.282Z,7.30
2018-08-20T06:07:23.633Z,7.27
2018-08-20T06:09:52.528Z,7.17
2018-08-20T06:12:21.635Z,7.33
2018-08-20T06:14:50.944Z,7.47
2018-08-20T06:17:19.817Z,7.30
2018-08-20T06:19:49.072Z,6.67
2018-08-20T06:22:18.250Z,7.30
2018-08-20T06:24:47.263Z,7.33
2018-08-20T06:27:16.434Z,6.97
2018-08-20T06:29:45.669Z,7.37
2018-08-20T06:32:14.569Z,6.97
2018-08-20T06:34:43.665Z,7.30
2018-08-20T06:37:12.823Z,7.23
2018-08-20T06:39:41.750Z,7.30
2018-08-20T06:42:10.858Z,6.53
2018-08-20T06:44:40.135Z,7.10
2018-08-20T06:47:09.378Z,7.43
2018-08-20T06:49:38.334Z,7.90
2018-08-20T06:52:07.309Z,7.77
2018-08-20T06:54:36.569Z,7.20
2018-08-20T06:57:05.355Z,7.10
2018-08-20T06:59:34.506Z,6.50
2018-08-20T07:02:03.713Z,6.42
2018-08-20T07:04:32.738Z,6.33
2018-08-20T07:07:02.206Z,6.53
2018-08-20T07:09:31.077Z,7.43
2018-08-20T07:12:00.020Z,6.57
2018-08-20T07:14:29.282Z,6.53
2018-08-20T07:16:58.364Z,6.77
2018-08-20T07:19:28.380Z,6.07
2018-08-20T07:21:57.246Z,5.87
2018-08-20T07:24:26.369Z,5.67
2018-08-20T07:26:55.218Z,5.90
2018-08-20T07:29:39.705Z,5.60
2018-08-20T07:32:13.417Z,5.63
2018-08-20T07:34:43.370Z,5.57
2018-08-20T07:37:13.536Z,5.20
2018-08-20T07:39:44.168Z,4.83
2018-08-20T07:42:13.482Z,4.80
2018-08-20T07:44:43.447Z,5.13
2018-08-20T07:47:12.818Z,4.97
2018-08-20T07:49:42.124Z,4.80
2018-08-20T07:52:11.853Z,4.40
2018-08-20T07:54:41.173Z,4.70
2018-08-20T07:57:10.879Z,5.20
2018-08-20T07:59:40.274Z,4.57
2018-08-20T08:02:09.861Z,4.70
2018-08-20T08:04:39.001Z,4.27
2018-08-20T08:07:08.152Z,8.07
2018-08-20T08:09:37.298Z,7.90
2018-08-20T08:12:06.663Z,5.20
2018-08-20T08:14:35.606Z,5.23
2018-08-20T08:17:04.528Z,4.53
2018-08-20T08:19:33.710Z,4.90
2018-08-20T08:22:03.097Z,4.87
2018-08-20T08:24:32.434Z,5.30
2018-08-20T08:27:01.183Z,5.37
2018-08-20T08:29:30.448Z,5.17
2018-08-20T08:31:59.514Z,5.27
2018-08-20T08:34:28.557Z,4.40
2018-08-20T08:36:57.908Z,4.90
2018-08-20T08:39:26.970Z,4.57
2018-08-20T08:41:55.738Z,5.20
2018-08-20T08:44:24.830Z,4.63
2018-08-20T08:46:54.182Z,4.70
2018-08-20T08:49:23.212Z,4.87
2018-08-20T08:51:52.282Z,4.63
2018-08-20T08:54:21.414Z,4.80
2018-08-20T08:56:50.231Z,4.37
2018-08-20T08:59:19.157Z,4.60
2018-08-20T09:01:48.470Z,5.17
2018-08-20T09:04:17.597Z,4.60
2018-08-20T09:06:46.725Z,4.37
2018-08-20T09:09:15.974Z,4.62
2018-08-20T09:11:45.228Z,5.45
2018-08-20T09:14:14.135Z,14.93
2018-08-20T09:16:43.398Z,4.80
2018-08-20T09:19:12.474Z,4.72
2018-08-20T09:21:41.702Z,4.78
2018-08-20T09:24:10.846Z,4.72
2018-08-20T09:26:40.044Z,4.80
2018-08-20T09:29:09.172Z,4.45
2018-08-20T09:31:38.125Z,4.90
2018-08-20T09:34:07.630Z,4.53
2018-08-20T09:36:36.867Z,4.50
2018-08-20T09:39:07.019Z,4.37
2018-08-20T09:41:36.391Z,4.83
2018-08-20T09:44:05.200Z,4.50
2018-08-20T09:46:34.042Z,4.60
2018-08-20T09:49:03.297Z,4.33
2018-08-20T09:51:32.629Z,4.60
2018-08-20T09:54:01.820Z,3.98
2018-08-20T09:56:31.218Z,3.67
2018-08-20T09:59:00.627Z,4.03
2018-08-20T10:01:29.731Z,3.50
2018-08-20T10:03:58.838Z,4.22
2018-08-20T10:06:27.903Z,3.55
2018-08-20T10:08:57.063Z,3.72
2018-08-20T10:11:26.219Z,4.05
2018-08-20T10:13:55.311Z,4.28
2018-08-20T10:16:24.028Z,4.00
2018-08-20T10:18:52.971Z,3.67
2018-08-20T10:21:22.264Z,3.85
2018-08-20T10:23:51.164Z,3.60
2018-08-20T10:26:20.381Z,3.45
2018-08-20T10:28:49.490Z,3.42
2018-08-20T10:31:18.427Z,3.42
2018-08-20T10:33:47.546Z,3.47
2018-08-20T10:36:16.797Z,3.85
2018-08-20T10:38:45.783Z,3.35
2018-08-20T10:41:14.857Z,3.60
2018-08-20T10:43:43.942Z,3.35
2018-08-20T10:46:17.951Z,3.42
2018-08-20T10:48:47.139Z,3.67
2018-08-20T10:51:16.026Z,3.62
2018-08-20T10:53:45.271Z,3.60
2018-08-20T10:56:14.598Z,3.98
2018-08-20T10:58:43.772Z,3.55
2018-08-20T11:01:12.810Z,3.65
2018-08-20T11:03:47.761Z,3.75
2018-08-20T11:06:17.671Z,3.00
2018-08-20T11:08:46.974Z,3.42
2018-08-20T11:11:16.094Z,3.60
2018-08-20T11:13:45.247Z,3.25
2018-08-20T11:16:14.465Z,3.92
2018-08-20T11:18:43.700Z,4.00
2018-08-20T11:21:12.586Z,3.55
2018-08-20T11:23:41.651Z,3.67
2018-08-20T11:26:10.740Z,3.92
2018-08-20T11:28:39.594Z,3.62
2018-08-20T11:31:08.581Z,3.60
2018-08-20T11:33:37.557Z,3.90
2018-08-20T11:36:06.901Z,3.67
2018-08-20T11:38:36.086Z,3.80
2018-08-20T11:41:05.173Z,3.87
2018-08-20T11:43:34.110Z,3.95
2018-08-20T11:46:03.195Z,3.72
2018-08-20T11:48:32.284Z,3.85
2018-08-20T11:51:02.435Z,4.00
2018-08-20T11:53:31.461Z,3.52
2018-08-20T11:56:00.624Z,3.70
2018-08-20T11:58:29.727Z,3.87
2018-08-20T12:00:58.624Z,3.90
2018-08-20T12:03:27.547Z,3.70
2018-08-20T12:05:56.630Z,4.00
2018-08-20T12:08:25.775Z,3.77
2018-08-20T12:10:54.515Z,3.85
2018-08-20T12:13:23.356Z,4.15
2018-08-20T12:15:52.584Z,3.85
2018-08-20T12:18:21.630Z,3.60
2018-08-20T12:20:50.542Z,3.52
2018-08-20T12:23:19.881Z,3.50
2018-08-20T12:25:48.937Z,3.60
2018-08-20T12:28:18.118Z,4.22
2018-08-20T12:30:47.397Z,3.67
2018-08-20T12:33:16.391Z,4.03
2018-08-20T12:35:45.436Z,3.65
2018-08-20T12:38:14.459Z,3.70
2018-08-20T12:40:43.580Z,3.83
2018-08-20T12:43:12.817Z,3.72
2018-08-20T12:45:41.486Z,3.52
2018-08-20T12:48:10.330Z,3.70
2018-08-20T12:50:39.243Z,3.50
2018-08-20T12:53:08.481Z,3.60
2018-08-20T12:55:37.335Z,3.80
2018-08-20T12:58:06.503Z,3.72
2018-08-20T13:00:35.653Z,3.62
2018-08-20T13:03:04.994Z,3.55
2018-08-20T13:05:33.790Z,3.52
2018-08-20T13:08:02.933Z,3.37
2018-08-20T13:10:32.246Z,3.45
2018-08-20T13:13:01.372Z,3.22
2018-08-20T13:15:30.563Z,3.65
2018-08-20T13:17:59.701Z,3.30
2018-08-20T13:20:28.941Z,4.03
2018-08-20T13:22:58.190Z,3.35
2018-08-20T13:25:27.329Z,3.27
2018-08-20T13:27:56.571Z,3.50
2018-08-20T13:30:25.699Z,3.70
2018-08-20T13:32:54.671Z,3.47
2018-08-20T13:35:23.846Z,3.58
2018-08-20T13:37:52.866Z,3.27
2018-08-20T13:40:21.846Z,3.50
2018-08-20T13:42:51.105Z,3.17
2018-08-20T13:45:20.346Z,3.72
2018-08-20T13:47:49.593Z,3.50
2018-08-20T13:50:18.778Z,3.83
2018-08-20T13:52:48.225Z,3.62
2018-08-20T13:55:17.334Z,3.58
2018-08-20T13:57:48.273Z,3.70
2018-08-20T14:00:19.556Z,3.80
2018-08-20T14:02:48.839Z,3.50
2018-08-20T14:05:20.828Z,3.83
2018-08-20T14:07:52.518Z,3.50
2018-08-20T14:10:21.770Z,3.37
2018-08-20T14:12:50.981Z,3.70
2018-08-20T14:15:20.076Z,3.70
2018-08-20T14:17:49.329Z,3.40
2018-08-20T14:20:18.560Z,3.23
2018-08-20T14:22:47.294Z,4.20
2018-08-20T14:25:16.570Z,4.30
2018-08-20T14:27:45.807Z,3.60
2018-08-20T14:30:15.690Z,3.83
2018-08-20T14:32:45.362Z,3.53
2018-08-20T14:35:14.438Z,3.20
2018-08-20T14:37:43.330Z,3.43
2018-08-20T14:40:16.528Z,3.40
2018-08-20T14:42:45.924Z,3.83
2018-08-20T14:45:15.971Z,3.70
2018-08-20T14:47:45.666Z,3.70
2018-08-20T14:50:17.424Z,3.53
2018-08-20T14:52:46.575Z,4.47
2018-08-20T14:55:15.558Z,3.57
2018-08-20T14:57:44.713Z,3.73
2018-08-20T15:00:15.011Z,3.90
2018-08-20T15:02:44.031Z,3.70
2018-08-20T15:05:12.827Z,4.03
2018-08-20T15:07:42.019Z,3.80
2018-08-20T15:10:11.348Z,3.77
2018-08-20T15:12:40.499Z,3.77
2018-08-20T15:15:09.875Z,3.40
2018-08-20T15:17:38.715Z,3.77
2018-08-20T15:20:08.631Z,3.93
2018-08-20T15:22:38.116Z,3.90
2018-08-20T15:25:07.568Z,5.20
2018-08-20T15:27:36.754Z,4.90
2018-08-20T15:30:06.419Z,4.10
2018-08-20T15:32:35.717Z,4.10
2018-08-20T15:35:05.008Z,4.13
2018-08-20T15:37:33.853Z,3.97
2018-08-20T15:40:02.586Z,4.90
2018-08-20T15:42:31.844Z,4.27
2018-08-20T15:45:00.950Z,3.93
2018-08-20T15:47:29.763Z,4.10
2018-08-20T15:49:58.933Z,3.80
2018-08-20T15:52:27.823Z,4.67
2018-08-20T15:54:56.748Z,4.30
2018-08-20T15:57:25.830Z,3.80
2018-08-20T15:59:54.610Z,4.23
2018-08-20T16:02:23.730Z,4.47
2018-08-20T16:04:53.048Z,4.00
2018-08-20T16:07:22.362Z,4.50
2018-08-20T16:09:51.177Z,4.50
2018-08-20T16:12:20.351Z,4.47
2018-08-20T16:14:49.547Z,4.80
2018-08-20T16:17:18.700Z,4.27
2018-08-20T16:19:47.838Z,3.80
2018-08-20T16:22:17.118Z,4.03
2018-08-20T16:24:46.415Z,3.70
2018-08-20T16:27:15.522Z,4.00
2018-08-20T16:29:44.618Z,4.00
2018-08-20T16:32:13.717Z,3.90
2018-08-20T16:34:42.601Z,4.70
2018-08-20T16:37:11.949Z,4.07
2018-08-20T16:39:41.230Z,3.70
2018-08-20T16:42:10.462Z,4.40
2018-08-20T16:44:39.504Z,3.80
2018-08-20T16:47:08.814Z,4.07
2018-08-20T16:49:37.607Z,4.17
2018-08-20T16:52:07.160Z,4.10
2018-08-20T16:54:36.270Z,3.90
2018-08-20T16:57:05.331Z,4.00
2018-08-20T16:59:34.463Z,4.57
2018-08-20T17:02:03.496Z,4.10
2018-08-20T17:04:42.432Z,4.87
2018-08-20T17:07:11.526Z,4.43
2018-08-20T17:09:40.722Z,4.63
2018-08-20T17:12:09.855Z,5.23
2018-08-20T17:14:38.706Z,5.43
2018-08-20T17:17:07.598Z,6.77
2018-08-20T17:19:36.406Z,6.00
2018-08-20T17:22:05.190Z,6.17
2018-08-20T17:24:41.840Z,4.93
2018-08-20T17:27:11.786Z,4.50
2018-08-20T17:29:41.014Z,4.20
2018-08-20T17:32:10.448Z,4.43
2018-08-20T17:34:40.714Z,4.57
2018-08-20T17:37:10.759Z,4.33
2018-08-20T17:39:56.225Z,4.63
2018-08-20T17:42:26.691Z,4.40
2018-08-20T17:44:55.902Z,4.57
2018-08-20T17:47:26.289Z,4.57
2018-08-20T17:49:56.595Z,3.90
2018-08-20T17:52:39.211Z,4.30
2018-08-20T17:55:08.434Z,4.30
2018-08-20T17:57:37.540Z,4.23
2018-08-20T18:00:47.085Z,4.60
2018-08-20T18:03:22.949Z,4.40
2018-08-20T18:05:53.799Z,4.40
2018-08-20T18:08:24.147Z,3.90
2018-08-20T18:10:53.387Z,4.23
2018-08-20T18:13:34.311Z,4.80
2018-08-20T18:16:05.843Z,4.70
2018-08-20T18:18:35.524Z,4.87
2018-08-20T18:21:04.722Z,4.97
2018-08-20T18:23:34.796Z,4.57
2018-08-20T18:26:04.111Z,4.50
2018-08-20T18:29:06.119Z,4.37
2018-08-20T18:31:35.877Z,4.33
2018-08-20T18:34:05.108Z,4.83
2018-08-20T18:36:34.151Z,4.60
2018-08-20T18:39:06.968Z,4.57
2018-08-20T18:41:52.421Z,4.80
2018-08-20T18:44:22.942Z,4.10
2018-08-20T18:46:52.513Z,4.70
2018-08-20T18:49:22.611Z,4.30
2018-08-20T18:51:57.440Z,4.50
2018-08-20T18:54:27.045Z,4.87
2018-08-20T18:57:03.253Z,4.50
2018-08-20T18:59:32.462Z,4.10
2018-08-20T19:02:01.739Z,4.87
2018-08-20T19:04:38.056Z,4.00
2018-08-20T19:07:11.474Z,4.30
2018-08-20T19:09:41.398Z,4.13
2018-08-20T19:12:10.582Z,4.30
2018-08-20T19:14:39.584Z,4.10
2018-08-20T19:17:13.750Z,4.20
2018-08-20T19:19:48.447Z,4.03
2018-08-20T19:22:22.706Z,4.47
2018-08-20T19:24:51.810Z,4.43
2018-08-20T19:27:20.959Z,4.47
2018-08-20T19:29:50.083Z,4.10
2018-08-20T19:32:18.963Z,4.10
2018-08-20T19:34:47.772Z,4.07
2018-08-20T19:37:16.972Z,4.20
2018-08-20T19:39:46.291Z,4.03
2018-08-20T19:42:21.701Z,4.03
2018-08-20T19:44:50.929Z,4.53
2018-08-20T19:47:20.042Z,3.97
2018-08-20T19:49:49.175Z,4.17
2018-08-20T19:52:18.201Z,4.27
2018-08-20T19:54:50.481Z,4.50
2018-08-20T19:57:19.674Z,4.27
2018-08-20T19:59:49.271Z,4.30
2018-08-20T20:02:18.347Z,4.10
2018-08-20T20:04:47.426Z,4.90
2018-08-20T20:07:16.260Z,4.37
2018-08-20T20:09:45.483Z,4.80
2018-08-20T20:12:14.536Z,4.20
2018-08-20T20:14:47.491Z,5.30
2018-08-20T20:17:16.865Z,5.20
2018-08-20T20:19:46.686Z,5.47
2018-08-20T20:22:17.317Z,5.73
2018-08-20T20:24:46.490Z,5.50
2018-08-20T20:27:15.515Z,5.20
2018-08-20T20:29:44.650Z,5.10
2018-08-20T20:32:13.794Z,4.90
2018-08-20T20:34:42.742Z,4.70
2018-08-20T20:37:11.839Z,5.17
2018-08-20T20:39:45.166Z,4.93
2018-08-20T20:42:14.268Z,4.97
2018-08-20T20:44:43.437Z,5.63
2018-08-20T20:47:12.346Z,4.93
2018-08-20T20:49:41.594Z,5.10
2018-08-20T20:52:10.810Z,5.23
2018-08-20T20:54:40.143Z,5.07
2018-08-20T20:57:09.431Z,4.93
2018-08-20T20:59:38.751Z,5.37
2018-08-20T21:02:08.590Z,4.87
2018-08-20T21:04:38.000Z,5.47
2018-08-20T21:07:06.890Z,4.93
2018-08-20T21:09:41.050Z,5.70
2018-08-20T21:12:10.418Z,5.03
2018-08-20T21:14:39.501Z,4.70
2018-08-20T21:17:08.462Z,5.10
2018-08-20T21:19:37.637Z,4.83
2018-08-20T21:22:07.447Z,4.80
2018-08-20T21:24:36.645Z,5.03
2018-08-20T21:27:13.801Z,5.97
2018-08-20T21:29:43.283Z,5.27
2018-08-20T21:32:12.475Z,5.50
2018-08-20T21:34:42.295Z,5.53
2018-08-20T21:37:11.886Z,5.37
2018-08-20T21:39:40.962Z,5.90
2018-08-20T21:42:10.084Z,4.90
2018-08-20T21:44:39.183Z,5.27
2018-08-20T21:47:29.279Z,5.17
2018-08-20T21:49:58.612Z,5.10
2018-08-20T21:52:27.902Z,4.60
2018-08-20T21:54:56.668Z,5.13
2018-08-20T21:57:25.782Z,5.17
2018-08-20T22:00:05.107Z,4.80
2018-08-20T22:02:34.318Z,5.30
2018-08-20T22:05:03.669Z,4.87
2018-08-20T22:07:33.146Z,5.13
2018-08-20T22:10:02.212Z,4.40
2018-08-20T22:12:31.053Z,5.33
2018-08-20T22:15:00.410Z,4.40
2018-08-20T22:17:29.321Z,4.93
2018-08-20T22:19:58.740Z,5.47
2018-08-20T22:22:28.641Z,5.13
2018-08-20T22:24:58.519Z,4.90
2018-08-20T22:27:28.745Z,5.37
2018-08-20T22:30:02.389Z,5.30
2018-08-20T22:32:32.247Z,5.03
2018-08-20T22:35:01.509Z,5.00
2018-08-20T22:37:30.495Z,5.10
2018-08-20T22:40:04.244Z,5.27
2018-08-20T22:42:45.069Z,5.13
2018-08-20T22:45:15.466Z,4.93
2018-08-20T22:47:45.406Z,5.30
2018-08-20T22:50:14.704Z,5.13
2018-08-20T22:52:45.178Z,5.00
2018-08-20T22:55:16.034Z,5.70
2018-08-20T22:58:17.427Z,5.20
2018-08-20T23:00:46.703Z,5.00
2018-08-20T23:03:15.818Z,5.67
2018-08-20T23:05:44.959Z,6.10
2018-08-20T23:08:17.983Z,6.00
2018-08-20T23:10:47.189Z,5.57
2018-08-20T23:13:15.926Z,5.93
2018-08-20T23:15:44.769Z,5.67
2018-08-20T23:18:14.062Z,5.70
2018-08-20T23:20:43.301Z,6.20
2018-08-20T23:23:12.706Z,5.37
2018-08-20T23:25:41.714Z,6.17
2018-08-20T23:28:10.578Z,5.93
2018-08-20T23:30:41.278Z,6.33
2018-08-20T23:33:10.435Z,6.17
2018-08-20T23:35:39.334Z,6.27
2018-08-20T23:38:08.614Z,6.10
2018-08-20T23:40:37.657Z,6.47
2018-08-20T23:43:06.743Z,6.20
2018-08-20T23:45:35.950Z,5.87
2018-08-20T23:48:05.213Z,6.20
2018-08-20T23:50:34.328Z,6.03
2018-08-20T23:53:03.366Z,6.50
2018-08-20T23:55:32.556Z,6.00
2018-08-20T23:58:01.815Z,6.10
